sensor_id;sensor_type;location;lat;lon;timestamp;P1;durP1;ratioP1;P2;durP2;ratioP2
56242;SDS011;42155;53.096;23.226;2023-01-24T00:00:44;23.80;;;8.40;;
56242;SDS011;42155;53.096;23.226;2023-01-24T00:02:45;48.45;;;11.82;;
56242;SDS011;42155;53.096;23.226;2023-01-24T00:04:45;33.70;;;12.85;;
56242;SDS011;42155;53.096;23.226;2023-01-24T00:06:45;24.98;;;9.95;;
56242;SDS011;42155;53.096;23.226;2023-01-24T00:08:46;20.33;;;8.57;;
56242;SDS011;42155;53.096;23.226;2023-01-24T00:10:46;32.97;;;9.60;;
56242;SDS011;42155;53.096;23.226;2023-01-24T00:12:47;36.70;;;12.18;;
56242;SDS011;42155;53.096;23.226;2023-01-24T00:14:48;46.55;;;13.18;;
56242;SDS011;42155;53.096;23.226;2023-01-24T00:16:48;32.53;;;10.88;;
56242;SDS011;42155;53.096;23.226;2023-01-24T00:18:49;43.50;;;12.43;;
56242;SDS011;42155;53.096;23.226;2023-01-24T00:20:49;57.05;;;15.05;;
56242;SDS011;42155;53.096;23.226;2023-01-24T00:22:50;39.00;;;12.50;;
56242;SDS011;42155;53.096;23.226;2023-01-24T00:24:50;42.88;;;13.57;;
56242;SDS011;42155;53.096;23.226;2023-01-24T00:26:50;42.38;;;13.18;;
56242;SDS011;42155;53.096;23.226;2023-01-24T00:28:51;27.40;;;9.38;;
56242;SDS011;42155;53.096;23.226;2023-01-24T00:30:52;36.63;;;12.15;;
56242;SDS011;42155;53.096;23.226;2023-01-24T00:32:52;45.53;;;13.30;;
56242;SDS011;42155;53.096;23.226;2023-01-24T00:34:52;32.80;;;11.45;;
56242;SDS011;42155;53.096;23.226;2023-01-24T00:36:53;49.97;;;14.73;;
56242;SDS011;42155;53.096;23.226;2023-01-24T00:38:53;44.50;;;13.40;;
56242;SDS011;42155;53.096;23.226;2023-01-24T00:40:54;35.70;;;12.13;;
56242;SDS011;42155;53.096;23.226;2023-01-24T00:42:54;43.90;;;13.73;;
56242;SDS011;42155;53.096;23.226;2023-01-24T00:44:55;35.28;;;12.07;;
56242;SDS011;42155;53.096;23.226;2023-01-24T00:46:55;46.80;;;14.40;;
56242;SDS011;42155;53.096;23.226;2023-01-24T00:48:55;40.58;;;14.10;;
56242;SDS011;42155;53.096;23.226;2023-01-24T00:50:56;24.20;;;9.73;;
56242;SDS011;42155;53.096;23.226;2023-01-24T00:52:56;45.60;;;15.23;;
56242;SDS011;42155;53.096;23.226;2023-01-24T00:54:56;42.50;;;13.93;;
56242;SDS011;42155;53.096;23.226;2023-01-24T00:56:57;35.65;;;12.77;;
56242;SDS011;42155;53.096;23.226;2023-01-24T00:58:57;31.00;;;10.93;;
56242;SDS011;42155;53.096;23.226;2023-01-24T01:00:57;33.85;;;11.73;;
56242;SDS011;42155;53.096;23.226;2023-01-24T01:02:58;30.23;;;11.30;;
56242;SDS011;42155;53.096;23.226;2023-01-24T01:04:58;34.17;;;13.23;;
56242;SDS011;42155;53.096;23.226;2023-01-24T01:06:58;29.58;;;11.52;;
56242;SDS011;42155;53.096;23.226;2023-01-24T01:08:59;25.98;;;9.90;;
56242;SDS011;42155;53.096;23.226;2023-01-24T01:10:59;25.17;;;10.35;;
56242;SDS011;42155;53.096;23.226;2023-01-24T01:13:00;31.85;;;12.00;;
56242;SDS011;42155;53.096;23.226;2023-01-24T01:15:00;30.75;;;10.98;;
56242;SDS011;42155;53.096;23.226;2023-01-24T01:17:01;21.92;;;9.55;;
56242;SDS011;42155;53.096;23.226;2023-01-24T01:19:01;23.83;;;10.13;;
56242;SDS011;42155;53.096;23.226;2023-01-24T01:21:02;24.02;;;10.13;;
56242;SDS011;42155;53.096;23.226;2023-01-24T01:23:03;22.73;;;10.00;;
56242;SDS011;42155;53.096;23.226;2023-01-24T01:25:03;28.20;;;10.50;;
56242;SDS011;42155;53.096;23.226;2023-01-24T01:27:04;25.50;;;11.13;;
56242;SDS011;42155;53.096;23.226;2023-01-24T01:29:04;34.90;;;12.55;;
56242;SDS011;42155;53.096;23.226;2023-01-24T01:31:04;26.40;;;11.15;;
56242;SDS011;42155;53.096;23.226;2023-01-24T01:33:05;24.10;;;10.95;;
56242;SDS011;42155;53.096;23.226;2023-01-24T01:35:05;26.15;;;10.35;;
56242;SDS011;42155;53.096;23.226;2023-01-24T01:37:06;39.50;;;14.20;;
56242;SDS011;42155;53.096;23.226;2023-01-24T01:39:06;28.13;;;11.95;;
56242;SDS011;42155;53.096;23.226;2023-01-24T01:41:12;24.98;;;10.70;;
56242;SDS011;42155;53.096;23.226;2023-01-24T01:43:17;24.50;;;10.15;;
56242;SDS011;42155;53.096;23.226;2023-01-24T01:47:34;26.05;;;9.50;;
56242;SDS011;42155;53.096;23.226;2023-01-24T01:49:36;18.40;;;8.75;;
56242;SDS011;42155;53.096;23.226;2023-01-24T01:51:42;22.23;;;8.52;;
56242;SDS011;42155;53.096;23.226;2023-01-24T01:53:59;22.45;;;8.88;;
56242;SDS011;42155;53.096;23.226;2023-01-24T01:56:05;20.00;;;7.75;;
56242;SDS011;42155;53.096;23.226;2023-01-24T01:58:14;23.48;;;9.15;;
56242;SDS011;42155;53.096;23.226;2023-01-24T02:00:18;20.20;;;9.20;;
56242;SDS011;42155;53.096;23.226;2023-01-24T02:02:20;22.85;;;9.35;;
56242;SDS011;42155;53.096;23.226;2023-01-24T02:04:24;20.92;;;9.05;;
56242;SDS011;42155;53.096;23.226;2023-01-24T02:06:33;21.42;;;9.07;;
56242;SDS011;42155;53.096;23.226;2023-01-24T02:08:58;22.35;;;9.48;;
56242;SDS011;42155;53.096;23.226;2023-01-24T02:11:01;20.63;;;8.88;;
56242;SDS011;42155;53.096;23.226;2023-01-24T02:13:03;28.52;;;9.93;;
56242;SDS011;42155;53.096;23.226;2023-01-24T02:15:05;20.42;;;8.50;;
56242;SDS011;42155;53.096;23.226;2023-01-24T02:17:09;20.52;;;8.85;;
56242;SDS011;42155;53.096;23.226;2023-01-24T02:19:11;22.88;;;9.43;;
56242;SDS011;42155;53.096;23.226;2023-01-24T02:21:22;19.60;;;8.35;;
56242;SDS011;42155;53.096;23.226;2023-01-24T02:28:24;18.67;;;8.10;;
56242;SDS011;42155;53.096;23.226;2023-01-24T02:30:24;21.50;;;8.55;;
56242;SDS011;42155;53.096;23.226;2023-01-24T02:32:25;22.50;;;8.90;;
56242;SDS011;42155;53.096;23.226;2023-01-24T02:34:26;20.83;;;8.55;;
56242;SDS011;42155;53.096;23.226;2023-01-24T02:36:30;19.73;;;8.18;;
56242;SDS011;42155;53.096;23.226;2023-01-24T02:38:33;21.40;;;8.07;;
56242;SDS011;42155;53.096;23.226;2023-01-24T02:40:33;21.08;;;8.98;;
56242;SDS011;42155;53.096;23.226;2023-01-24T02:42:35;22.38;;;9.35;;
56242;SDS011;42155;53.096;23.226;2023-01-24T02:44:48;20.33;;;8.13;;
56242;SDS011;42155;53.096;23.226;2023-01-24T02:46:54;19.08;;;8.23;;
56242;SDS011;42155;53.096;23.226;2023-01-24T02:48:54;22.30;;;8.75;;
56242;SDS011;42155;53.096;23.226;2023-01-24T02:50:54;22.92;;;9.55;;
56242;SDS011;42155;53.096;23.226;2023-01-24T02:52:54;20.92;;;9.52;;
56242;SDS011;42155;53.096;23.226;2023-01-24T02:54:55;20.25;;;8.52;;
56242;SDS011;42155;53.096;23.226;2023-01-24T02:56:55;23.02;;;8.77;;
56242;SDS011;42155;53.096;23.226;2023-01-24T02:58:55;20.40;;;9.38;;
56242;SDS011;42155;53.096;23.226;2023-01-24T03:00:56;20.35;;;8.55;;
56242;SDS011;42155;53.096;23.226;2023-01-24T03:02:56;25.08;;;10.23;;
56242;SDS011;42155;53.096;23.226;2023-01-24T03:04:56;23.38;;;8.88;;
56242;SDS011;42155;53.096;23.226;2023-01-24T03:06:57;22.95;;;8.93;;
56242;SDS011;42155;53.096;23.226;2023-01-24T03:08:57;23.13;;;9.50;;
56242;SDS011;42155;53.096;23.226;2023-01-24T03:10:57;18.45;;;8.25;;
56242;SDS011;42155;53.096;23.226;2023-01-24T03:12:58;23.77;;;9.85;;
56242;SDS011;42155;53.096;23.226;2023-01-24T03:14:58;21.17;;;8.73;;
56242;SDS011;42155;53.096;23.226;2023-01-24T03:16:59;24.27;;;10.05;;
56242;SDS011;42155;53.096;23.226;2023-01-24T03:18:59;22.33;;;9.50;;
56242;SDS011;42155;53.096;23.226;2023-01-24T03:21:00;25.83;;;10.02;;
56242;SDS011;42155;53.096;23.226;2023-01-24T03:23:01;23.63;;;9.18;;
56242;SDS011;42155;53.096;23.226;2023-01-24T03:25:01;23.00;;;8.93;;
56242;SDS011;42155;53.096;23.226;2023-01-24T03:27:02;21.67;;;8.90;;
56242;SDS011;42155;53.096;23.226;2023-01-24T03:29:02;21.67;;;8.70;;
56242;SDS011;42155;53.096;23.226;2023-01-24T03:31:05;20.05;;;8.40;;
56242;SDS011;42155;53.096;23.226;2023-01-24T03:33:06;22.17;;;8.70;;
56242;SDS011;42155;53.096;23.226;2023-01-24T03:35:06;21.35;;;9.80;;
56242;SDS011;42155;53.096;23.226;2023-01-24T03:37:07;22.25;;;8.82;;
56242;SDS011;42155;53.096;23.226;2023-01-24T03:39:08;19.67;;;8.90;;
56242;SDS011;42155;53.096;23.226;2023-01-24T03:41:09;25.98;;;10.13;;
56242;SDS011;42155;53.096;23.226;2023-01-24T03:43:10;23.85;;;9.48;;
56242;SDS011;42155;53.096;23.226;2023-01-24T03:45:10;22.48;;;9.65;;
56242;SDS011;42155;53.096;23.226;2023-01-24T03:47:10;26.98;;;9.27;;
56242;SDS011;42155;53.096;23.226;2023-01-24T03:49:11;20.17;;;8.73;;
56242;SDS011;42155;53.096;23.226;2023-01-24T03:51:11;20.98;;;9.18;;
56242;SDS011;42155;53.096;23.226;2023-01-24T03:53:12;18.48;;;8.88;;
56242;SDS011;42155;53.096;23.226;2023-01-24T03:55:13;21.65;;;8.93;;
56242;SDS011;42155;53.096;23.226;2023-01-24T03:57:13;19.13;;;9.32;;
56242;SDS011;42155;53.096;23.226;2023-01-24T03:59:13;22.58;;;9.35;;
56242;SDS011;42155;53.096;23.226;2023-01-24T04:01:14;22.05;;;8.80;;
56242;SDS011;42155;53.096;23.226;2023-01-24T04:03:14;23.17;;;8.88;;
56242;SDS011;42155;53.096;23.226;2023-01-24T04:05:15;18.88;;;9.30;;
56242;SDS011;42155;53.096;23.226;2023-01-24T04:07:15;20.30;;;8.70;;
56242;SDS011;42155;53.096;23.226;2023-01-24T04:09:15;22.52;;;9.38;;
56242;SDS011;42155;53.096;23.226;2023-01-24T04:11:16;23.55;;;9.40;;
56242;SDS011;42155;53.096;23.226;2023-01-24T04:13:16;20.42;;;9.30;;
56242;SDS011;42155;53.096;23.226;2023-01-24T04:15:18;25.05;;;8.73;;
56242;SDS011;42155;53.096;23.226;2023-01-24T04:17:20;20.20;;;8.75;;
56242;SDS011;42155;53.096;23.226;2023-01-24T04:19:21;19.40;;;8.73;;
56242;SDS011;42155;53.096;23.226;2023-01-24T04:21:21;19.27;;;9.35;;
56242;SDS011;42155;53.096;23.226;2023-01-24T04:23:21;20.67;;;9.20;;
56242;SDS011;42155;53.096;23.226;2023-01-24T04:25:22;18.42;;;8.30;;
56242;SDS011;42155;53.096;23.226;2023-01-24T04:27:22;23.10;;;9.05;;
56242;SDS011;42155;53.096;23.226;2023-01-24T04:29:22;20.40;;;8.88;;
56242;SDS011;42155;53.096;23.226;2023-01-24T04:31:23;22.38;;;8.70;;
56242;SDS011;42155;53.096;23.226;2023-01-24T04:33:23;18.77;;;8.43;;
56242;SDS011;42155;53.096;23.226;2023-01-24T04:35:24;20.25;;;8.50;;
56242;SDS011;42155;53.096;23.226;2023-01-24T04:37:26;16.33;;;7.53;;
56242;SDS011;42155;53.096;23.226;2023-01-24T04:39:27;22.73;;;9.18;;
56242;SDS011;42155;53.096;23.226;2023-01-24T04:41:27;26.45;;;8.75;;
56242;SDS011;42155;53.096;23.226;2023-01-24T04:43:27;19.27;;;7.93;;
56242;SDS011;42155;53.096;23.226;2023-01-24T04:45:28;17.83;;;7.85;;
56242;SDS011;42155;53.096;23.226;2023-01-24T04:47:28;17.70;;;8.27;;
56242;SDS011;42155;53.096;23.226;2023-01-24T04:49:30;16.20;;;7.00;;
56242;SDS011;42155;53.096;23.226;2023-01-24T04:51:30;18.13;;;7.85;;
56242;SDS011;42155;53.096;23.226;2023-01-24T04:53:30;19.30;;;8.15;;
56242;SDS011;42155;53.096;23.226;2023-01-24T04:55:31;19.80;;;8.40;;
56242;SDS011;42155;53.096;23.226;2023-01-24T04:57:31;20.40;;;8.60;;
56242;SDS011;42155;53.096;23.226;2023-01-24T04:59:31;20.20;;;8.65;;
56242;SDS011;42155;53.096;23.226;2023-01-24T05:01:32;18.15;;;8.27;;
56242;SDS011;42155;53.096;23.226;2023-01-24T05:03:32;20.63;;;9.07;;
56242;SDS011;42155;53.096;23.226;2023-01-24T05:05:33;20.80;;;8.50;;
56242;SDS011;42155;53.096;23.226;2023-01-24T05:07:33;20.23;;;8.55;;
56242;SDS011;42155;53.096;23.226;2023-01-24T05:09:33;21.75;;;8.80;;
56242;SDS011;42155;53.096;23.226;2023-01-24T05:11:34;21.42;;;8.52;;
56242;SDS011;42155;53.096;23.226;2023-01-24T05:13:34;18.77;;;7.88;;
56242;SDS011;42155;53.096;23.226;2023-01-24T05:15:34;20.50;;;8.55;;
56242;SDS011;42155;53.096;23.226;2023-01-24T05:17:35;17.52;;;8.32;;
56242;SDS011;42155;53.096;23.226;2023-01-24T05:19:35;17.88;;;8.15;;
56242;SDS011;42155;53.096;23.226;2023-01-24T05:21:35;18.85;;;8.15;;
56242;SDS011;42155;53.096;23.226;2023-01-24T05:23:36;19.13;;;8.82;;
56242;SDS011;42155;53.096;23.226;2023-01-24T05:25:36;21.55;;;9.40;;
56242;SDS011;42155;53.096;23.226;2023-01-24T05:27:36;20.45;;;8.50;;
56242;SDS011;42155;53.096;23.226;2023-01-24T05:29:37;19.40;;;8.48;;
56242;SDS011;42155;53.096;23.226;2023-01-24T05:31:37;18.88;;;8.57;;
56242;SDS011;42155;53.096;23.226;2023-01-24T05:33:37;20.15;;;9.05;;
56242;SDS011;42155;53.096;23.226;2023-01-24T05:35:38;19.65;;;8.80;;
56242;SDS011;42155;53.096;23.226;2023-01-24T05:37:38;17.90;;;8.27;;
56242;SDS011;42155;53.096;23.226;2023-01-24T05:39:39;17.73;;;7.90;;
56242;SDS011;42155;53.096;23.226;2023-01-24T05:41:39;23.55;;;8.82;;
56242;SDS011;42155;53.096;23.226;2023-01-24T05:43:40;19.77;;;8.90;;
56242;SDS011;42155;53.096;23.226;2023-01-24T05:45:40;22.25;;;8.77;;
56242;SDS011;42155;53.096;23.226;2023-01-24T05:47:40;21.70;;;8.23;;
56242;SDS011;42155;53.096;23.226;2023-01-24T05:49:41;19.33;;;8.57;;
56242;SDS011;42155;53.096;23.226;2023-01-24T05:51:41;22.95;;;8.75;;
56242;SDS011;42155;53.096;23.226;2023-01-24T05:53:42;20.70;;;9.40;;
56242;SDS011;42155;53.096;23.226;2023-01-24T05:55:43;23.45;;;9.52;;
56242;SDS011;42155;53.096;23.226;2023-01-24T05:57:43;22.08;;;8.73;;
56242;SDS011;42155;53.096;23.226;2023-01-24T05:59:44;17.70;;;8.65;;
56242;SDS011;42155;53.096;23.226;2023-01-24T06:01:44;21.70;;;9.57;;
56242;SDS011;42155;53.096;23.226;2023-01-24T06:03:46;22.85;;;9.15;;
56242;SDS011;42155;53.096;23.226;2023-01-24T06:05:49;18.40;;;9.02;;
56242;SDS011;42155;53.096;23.226;2023-01-24T06:07:52;19.52;;;8.90;;
56242;SDS011;42155;53.096;23.226;2023-01-24T06:09:53;22.50;;;9.52;;
56242;SDS011;42155;53.096;23.226;2023-01-24T06:11:53;27.33;;;11.10;;
56242;SDS011;42155;53.096;23.226;2023-01-24T06:13:54;20.52;;;9.55;;
56242;SDS011;42155;53.096;23.226;2023-01-24T06:16:05;22.90;;;10.15;;
56242;SDS011;42155;53.096;23.226;2023-01-24T06:18:14;25.45;;;9.68;;
56242;SDS011;42155;53.096;23.226;2023-01-24T06:20:16;21.30;;;9.32;;
56242;SDS011;42155;53.096;23.226;2023-01-24T06:22:20;24.38;;;10.40;;
56242;SDS011;42155;53.096;23.226;2023-01-24T06:24:28;27.20;;;10.32;;
56242;SDS011;42155;53.096;23.226;2023-01-24T06:26:29;30.05;;;13.07;;
56242;SDS011;42155;53.096;23.226;2023-01-24T06:28:29;30.05;;;12.38;;
56242;SDS011;42155;53.096;23.226;2023-01-24T06:30:30;35.80;;;14.48;;
56242;SDS011;42155;53.096;23.226;2023-01-24T06:32:40;33.47;;;13.80;;
56242;SDS011;42155;53.096;23.226;2023-01-24T06:37:21;34.50;;;13.88;;
56242;SDS011;42155;53.096;23.226;2023-01-24T06:39:32;31.83;;;13.43;;
56242;SDS011;42155;53.096;23.226;2023-01-24T06:41:33;32.03;;;13.20;;
56242;SDS011;42155;53.096;23.226;2023-01-24T06:43:34;31.83;;;13.85;;
56242;SDS011;42155;53.096;23.226;2023-01-24T06:45:34;33.22;;;14.55;;
56242;SDS011;42155;53.096;23.226;2023-01-24T06:47:35;29.20;;;12.90;;
56242;SDS011;42155;53.096;23.226;2023-01-24T06:49:36;31.02;;;14.20;;
56242;SDS011;42155;53.096;23.226;2023-01-24T06:51:37;31.20;;;13.95;;
56242;SDS011;42155;53.096;23.226;2023-01-24T06:53:38;30.48;;;13.65;;
56242;SDS011;42155;53.096;23.226;2023-01-24T06:55:38;33.53;;;13.57;;
56242;SDS011;42155;53.096;23.226;2023-01-24T06:57:38;31.67;;;13.13;;
56242;SDS011;42155;53.096;23.226;2023-01-24T06:59:39;30.30;;;13.15;;
56242;SDS011;42155;53.096;23.226;2023-01-24T07:01:39;28.77;;;13.30;;
56242;SDS011;42155;53.096;23.226;2023-01-24T07:03:39;32.45;;;14.10;;
56242;SDS011;42155;53.096;23.226;2023-01-24T07:05:40;28.55;;;13.93;;
56242;SDS011;42155;53.096;23.226;2023-01-24T07:07:40;31.65;;;13.85;;
56242;SDS011;42155;53.096;23.226;2023-01-24T07:09:40;32.58;;;13.45;;
56242;SDS011;42155;53.096;23.226;2023-01-24T07:11:41;34.47;;;15.18;;
56242;SDS011;42155;53.096;23.226;2023-01-24T07:13:41;41.05;;;18.42;;
56242;SDS011;42155;53.096;23.226;2023-01-24T07:15:41;37.45;;;16.95;;
56242;SDS011;42155;53.096;23.226;2023-01-24T07:17:42;45.42;;;21.85;;
56242;SDS011;42155;53.096;23.226;2023-01-24T07:19:43;44.63;;;21.85;;
56242;SDS011;42155;53.096;23.226;2023-01-24T07:21:44;47.17;;;21.88;;
56242;SDS011;42155;53.096;23.226;2023-01-24T07:23:45;35.47;;;17.52;;
56242;SDS011;42155;53.096;23.226;2023-01-24T07:25:47;38.58;;;19.25;;
56242;SDS011;42155;53.096;23.226;2023-01-24T07:27:48;38.65;;;18.67;;
56242;SDS011;42155;53.096;23.226;2023-01-24T07:29:49;40.13;;;19.42;;
56242;SDS011;42155;53.096;23.226;2023-01-24T07:31:49;51.10;;;22.08;;
56242;SDS011;42155;53.096;23.226;2023-01-24T07:33:50;46.67;;;21.92;;
56242;SDS011;42155;53.096;23.226;2023-01-24T07:35:50;47.00;;;21.00;;
56242;SDS011;42155;53.096;23.226;2023-01-24T07:37:50;43.38;;;18.83;;
56242;SDS011;42155;53.096;23.226;2023-01-24T07:39:51;32.05;;;16.08;;
56242;SDS011;42155;53.096;23.226;2023-01-24T07:41:51;34.92;;;15.57;;
56242;SDS011;42155;53.096;23.226;2023-01-24T07:43:51;31.38;;;14.30;;
56242;SDS011;42155;53.096;23.226;2023-01-24T07:45:52;29.13;;;13.60;;
56242;SDS011;42155;53.096;23.226;2023-01-24T07:47:55;23.17;;;10.73;;
56242;SDS011;42155;53.096;23.226;2023-01-24T07:49:57;24.58;;;11.43;;
56242;SDS011;42155;53.096;23.226;2023-01-24T07:51:57;21.38;;;10.00;;
56242;SDS011;42155;53.096;23.226;2023-01-24T07:53:58;19.95;;;9.93;;
56242;SDS011;42155;53.096;23.226;2023-01-24T07:55:58;24.17;;;10.15;;
56242;SDS011;42155;53.096;23.226;2023-01-24T07:58:00;21.73;;;10.60;;
56242;SDS011;42155;53.096;23.226;2023-01-24T08:00:02;19.92;;;9.88;;
56242;SDS011;42155;53.096;23.226;2023-01-24T08:02:03;23.75;;;10.73;;
56242;SDS011;42155;53.096;23.226;2023-01-24T08:04:03;23.05;;;11.15;;
56242;SDS011;42155;53.096;23.226;2023-01-24T08:06:04;24.02;;;11.00;;
56242;SDS011;42155;53.096;23.226;2023-01-24T08:08:04;21.42;;;9.95;;
56242;SDS011;42155;53.096;23.226;2023-01-24T08:10:05;24.27;;;10.43;;
56242;SDS011;42155;53.096;23.226;2023-01-24T08:12:06;20.63;;;9.95;;
56242;SDS011;42155;53.096;23.226;2023-01-24T08:14:23;22.02;;;9.95;;
56242;SDS011;42155;53.096;23.226;2023-01-24T08:16:50;21.83;;;10.68;;
56242;SDS011;42155;53.096;23.226;2023-01-24T08:19:21;22.90;;;11.23;;
56242;SDS011;42155;53.096;23.226;2023-01-24T08:21:39;27.92;;;11.50;;
56242;SDS011;42155;53.096;23.226;2023-01-24T08:23:39;21.27;;;9.27;;
56242;SDS011;42155;53.096;23.226;2023-01-24T08:25:39;25.15;;;10.77;;
56242;SDS011;42155;53.096;23.226;2023-01-24T08:27:40;22.40;;;9.73;;
56242;SDS011;42155;53.096;23.226;2023-01-24T08:29:40;25.58;;;10.90;;
56242;SDS011;42155;53.096;23.226;2023-01-24T08:31:41;22.20;;;10.38;;
56242;SDS011;42155;53.096;23.226;2023-01-24T08:33:41;19.10;;;9.18;;
56242;SDS011;42155;53.096;23.226;2023-01-24T08:35:41;24.92;;;10.88;;
56242;SDS011;42155;53.096;23.226;2023-01-24T08:37:43;19.98;;;9.10;;
56242;SDS011;42155;53.096;23.226;2023-01-24T08:39:43;18.08;;;9.20;;
56242;SDS011;42155;53.096;23.226;2023-01-24T08:41:44;23.45;;;10.43;;
56242;SDS011;42155;53.096;23.226;2023-01-24T08:43:44;22.63;;;9.80;;
56242;SDS011;42155;53.096;23.226;2023-01-24T08:45:44;24.58;;;10.68;;
56242;SDS011;42155;53.096;23.226;2023-01-24T08:47:49;19.55;;;9.30;;
56242;SDS011;42155;53.096;23.226;2023-01-24T08:49:50;26.27;;;9.55;;
56242;SDS011;42155;53.096;23.226;2023-01-24T08:51:51;26.63;;;10.75;;
56242;SDS011;42155;53.096;23.226;2023-01-24T08:53:51;42.78;;;15.18;;
56242;SDS011;42155;53.096;23.226;2023-01-24T08:55:51;30.48;;;12.52;;
56242;SDS011;42155;53.096;23.226;2023-01-24T08:57:52;29.98;;;11.90;;
56242;SDS011;42155;53.096;23.226;2023-01-24T08:59:59;21.65;;;10.43;;
56242;SDS011;42155;53.096;23.226;2023-01-24T09:01:59;21.55;;;9.98;;
56242;SDS011;42155;53.096;23.226;2023-01-24T09:03:59;19.77;;;8.90;;
56242;SDS011;42155;53.096;23.226;2023-01-24T09:06:00;18.40;;;9.55;;
56242;SDS011;42155;53.096;23.226;2023-01-24T09:08:01;21.42;;;10.00;;
56242;SDS011;42155;53.096;23.226;2023-01-24T09:10:02;26.58;;;11.38;;
56242;SDS011;42155;53.096;23.226;2023-01-24T09:12:03;21.88;;;10.15;;
56242;SDS011;42155;53.096;23.226;2023-01-24T09:14:04;21.77;;;10.68;;
56242;SDS011;42155;53.096;23.226;2023-01-24T09:16:04;21.73;;;10.73;;
56242;SDS011;42155;53.096;23.226;2023-01-24T09:18:05;26.08;;;12.10;;
56242;SDS011;42155;53.096;23.226;2023-01-24T09:20:05;26.63;;;12.20;;
56242;SDS011;42155;53.096;23.226;2023-01-24T09:22:06;29.33;;;11.27;;
56242;SDS011;42155;53.096;23.226;2023-01-24T09:24:07;23.08;;;11.55;;
56242;SDS011;42155;53.096;23.226;2023-01-24T09:26:07;21.13;;;10.38;;
56242;SDS011;42155;53.096;23.226;2023-01-24T09:28:07;17.58;;;8.90;;
56242;SDS011;42155;53.096;23.226;2023-01-24T09:30:08;19.25;;;9.02;;
56242;SDS011;42155;53.096;23.226;2023-01-24T09:32:09;18.92;;;7.72;;
56242;SDS011;42155;53.096;23.226;2023-01-24T09:34:10;16.38;;;8.15;;
56242;SDS011;42155;53.096;23.226;2023-01-24T09:36:10;16.50;;;7.50;;
56242;SDS011;42155;53.096;23.226;2023-01-24T09:38:10;16.48;;;8.43;;
56242;SDS011;42155;53.096;23.226;2023-01-24T09:40:21;13.40;;;6.45;;
56242;SDS011;42155;53.096;23.226;2023-01-24T09:42:43;14.82;;;6.78;;
56242;SDS011;42155;53.096;23.226;2023-01-24T09:47:13;15.15;;;7.13;;
56242;SDS011;42155;53.096;23.226;2023-01-24T09:51:51;11.30;;;5.88;;
56242;SDS011;42155;53.096;23.226;2023-01-24T09:53:53;12.82;;;6.47;;
56242;SDS011;42155;53.096;23.226;2023-01-24T09:55:57;10.77;;;5.88;;
56242;SDS011;42155;53.096;23.226;2023-01-24T09:58:00;14.45;;;7.53;;
56242;SDS011;42155;53.096;23.226;2023-01-24T10:00:10;18.30;;;8.88;;
56242;SDS011;42155;53.096;23.226;2023-01-24T10:02:18;19.63;;;8.95;;
56242;SDS011;42155;53.096;23.226;2023-01-24T10:04:22;20.40;;;9.10;;
56242;SDS011;42155;53.096;23.226;2023-01-24T10:06:30;18.08;;;9.05;;
56242;SDS011;42155;53.096;23.226;2023-01-24T10:08:37;18.25;;;9.05;;
56242;SDS011;42155;53.096;23.226;2023-01-24T10:15:42;19.52;;;9.15;;
56242;SDS011;42155;53.096;23.226;2023-01-24T10:20:30;15.88;;;8.55;;
56242;SDS011;42155;53.096;23.226;2023-01-24T10:25:14;20.58;;;9.93;;
56242;SDS011;42155;53.096;23.226;2023-01-24T10:27:21;17.08;;;8.63;;
56242;SDS011;42155;53.096;23.226;2023-01-24T10:29:31;19.05;;;8.85;;
56242;SDS011;42155;53.096;23.226;2023-01-24T10:31:39;16.27;;;8.07;;
56242;SDS011;42155;53.096;23.226;2023-01-24T10:34:08;17.50;;;8.00;;
56242;SDS011;42155;53.096;23.226;2023-01-24T10:38:45;16.50;;;7.20;;
56242;SDS011;42155;53.096;23.226;2023-01-24T10:40:50;14.63;;;7.53;;
56242;SDS011;42155;53.096;23.226;2023-01-24T10:42:50;16.67;;;8.10;;
56242;SDS011;42155;53.096;23.226;2023-01-24T10:44:51;18.38;;;9.02;;
56242;SDS011;42155;53.096;23.226;2023-01-24T10:49:34;18.85;;;9.38;;
56242;SDS011;42155;53.096;23.226;2023-01-24T10:51:36;20.88;;;9.52;;
56242;SDS011;42155;53.096;23.226;2023-01-24T10:53:37;20.38;;;9.45;;
56242;SDS011;42155;53.096;23.226;2023-01-24T10:55:37;16.80;;;8.45;;
56242;SDS011;42155;53.096;23.226;2023-01-24T10:59:39;19.95;;;9.88;;
56242;SDS011;42155;53.096;23.226;2023-01-24T11:01:44;17.40;;;9.13;;
56242;SDS011;42155;53.096;23.226;2023-01-24T11:03:47;19.50;;;9.48;;
56242;SDS011;42155;53.096;23.226;2023-01-24T11:05:50;15.68;;;8.43;;
56242;SDS011;42155;53.096;23.226;2023-01-24T11:07:52;21.73;;;9.10;;
56242;SDS011;42155;53.096;23.226;2023-01-24T11:09:59;18.58;;;9.73;;
56242;SDS011;42155;53.096;23.226;2023-01-24T11:12:00;21.90;;;9.98;;
56242;SDS011;42155;53.096;23.226;2023-01-24T11:14:01;22.65;;;10.35;;
56242;SDS011;42155;53.096;23.226;2023-01-24T11:16:06;23.65;;;11.48;;
56242;SDS011;42155;53.096;23.226;2023-01-24T11:18:26;25.33;;;12.07;;
56242;SDS011;42155;53.096;23.226;2023-01-24T11:20:29;26.33;;;12.52;;
56242;SDS011;42155;53.096;23.226;2023-01-24T11:22:31;28.58;;;13.40;;
56242;SDS011;42155;53.096;23.226;2023-01-24T11:24:31;29.67;;;14.10;;
56242;SDS011;42155;53.096;23.226;2023-01-24T11:27:01;31.83;;;15.60;;
56242;SDS011;42155;53.096;23.226;2023-01-24T11:29:05;33.22;;;15.80;;
56242;SDS011;42155;53.096;23.226;2023-01-24T11:33:30;33.63;;;15.27;;
56242;SDS011;42155;53.096;23.226;2023-01-24T11:35:44;35.30;;;16.17;;
56242;SDS011;42155;53.096;23.226;2023-01-24T11:40:19;34.60;;;16.83;;
56242;SDS011;42155;53.096;23.226;2023-01-24T11:42:28;38.80;;;16.17;;
56242;SDS011;42155;53.096;23.226;2023-01-24T11:55:39;30.33;;;15.63;;
56242;SDS011;42155;53.096;23.226;2023-01-24T12:00:35;34.38;;;16.40;;
56242;SDS011;42155;53.096;23.226;2023-01-24T12:07:31;32.45;;;13.23;;
56242;SDS011;42155;53.096;23.226;2023-01-24T12:09:59;32.60;;;13.38;;
56242;SDS011;42155;53.096;23.226;2023-01-24T12:21:59;24.13;;;12.60;;
56242;SDS011;42155;53.096;23.226;2023-01-24T12:24:01;25.98;;;13.18;;
56242;SDS011;42155;53.096;23.226;2023-01-24T12:26:30;27.20;;;13.25;;
56242;SDS011;42155;53.096;23.226;2023-01-24T12:28:34;27.25;;;13.48;;
56242;SDS011;42155;53.096;23.226;2023-01-24T12:30:43;29.92;;;14.75;;
56242;SDS011;42155;53.096;23.226;2023-01-24T12:32:53;28.02;;;14.65;;
56242;SDS011;42155;53.096;23.226;2023-01-24T12:35:19;29.63;;;15.20;;
56242;SDS011;42155;53.096;23.226;2023-01-24T12:39:37;36.85;;;17.83;;
56242;SDS011;42155;53.096;23.226;2023-01-24T12:41:43;35.25;;;16.90;;
56242;SDS011;42155;53.096;23.226;2023-01-24T12:49:02;34.67;;;15.80;;
56242;SDS011;42155;53.096;23.226;2023-01-24T12:53:32;32.35;;;15.00;;
56242;SDS011;42155;53.096;23.226;2023-01-24T12:58:18;32.15;;;15.13;;
56242;SDS011;42155;53.096;23.226;2023-01-24T13:00:23;32.33;;;15.60;;
56242;SDS011;42155;53.096;23.226;2023-01-24T13:06:57;32.25;;;15.75;;
56242;SDS011;42155;53.096;23.226;2023-01-24T13:13:23;27.25;;;13.40;;
56242;SDS011;42155;53.096;23.226;2023-01-24T13:32:10;23.52;;;11.85;;
56242;SDS011;42155;53.096;23.226;2023-01-24T13:34:13;24.02;;;11.60;;
56242;SDS011;42155;53.096;23.226;2023-01-24T13:36:18;27.65;;;12.43;;